Simcha — PE7688 — position and weather

sailwx.info

Track history (hours):
 
Tides and Currents Weather Stations Pressure Air Temp Water Temp Dewpoint Dewpoint Depression Visibility Wind Speed Wind Dir Waves Ship Positions

Simcha

Last reported at 2014-Jul-27 07:26 UTC. Time now 2014-Jul-30 21:27 UTC.
Position N 50°04' E 008°59'.

Length 10 m.

Type: Ship. MMSI: 244780014.

Date/timePositionNaut miles runAvg speedWind from/ knotsBaromVisibWave heightAir tempDewpointWater temp
2014-Jul-27 07:26N 50°04' E 008°59'3 3.9
2014-Jul-27 06:33N 50°06' E 008°56'4 4.0
2014-Jul-27 05:33N 50°08' E 008°50'5 3.7
2014-Jul-27 04:20N 50°06' E 008°43'  
2014-Jul-21 09:33N 51°11' E 006°44'62 1.5
2014-Jul-19 17:32N 51°53' E 005°31'5 4.9
2014-Jul-19 16:33N 51°51' E 005°25'4 3.9
2014-Jul-19 15:33N 51°49' E 005°19'5 4.9
2014-Jul-19 14:33N 51°49' E 005°11'5 4.8
2014-Jul-19 13:30N 51°49' E 005°03'6 5.5
2014-Jul-19 12:27N 51°49' E 004°54'5 5.7
2014-Jul-19 11:33N 51°47' E 004°46'6 5.6
2014-Jul-19 10:33N 51°43' E 004°40'27 1.0
2014-Jul-18 08:03N 51°36' E 003°58'3 6.7
2014-Jul-18 07:33N 51°33' E 003°59'6 5.6
2014-Jul-18 06:33N 51°27' E 004°01'4 3.5
2014-Jul-18 05:33N 51°26' E 003°56'9 7.1
2014-Jul-18 04:18N 51°26' E 003°41'1 0.1
2014-Jul-17 21:21N 51°27' E 003°42'1 0.4
2014-Jul-17 19:33N 51°26' E 003°41'9 7.1
2014-Jul-17 18:19N 51°26' E 003°56'4 3.8
2014-Jul-17 17:22N 51°27' E 004°01'5 6.0
2014-Jul-17 16:34N 51°32' E 003°60'27 5.4
2014-Jul-17 11:33N 51°45' E 004°38'7 6.9
2014-Jul-17 10:33N 51°52' E 004°38'7 7.2
2014-Jul-17 09:33N 51°55' E 004°49'7 7.5
2014-Jul-17 08:33N 51°59' E 004°59'5 5.2
2014-Jul-17 07:33N 52°01' E 005°07'  
Track history (hours):
 
Tides and Currents Weather Stations Pressure Air Temp Water Temp Dewpoint Dewpoint Depression Visibility Wind Speed Wind Dir Waves Ship Positions

Simcha

Last reported at 2014-Jul-27 07:26 UTC. Time now 2014-Jul-30 21:27 UTC.
Position N 50°04' E 008°59'.

Length 10 m.

Type: Ship. MMSI: 244780014.

Date/timePositionNaut miles runAvg speedWind from/ knotsBaromVisibWave heightAir tempDewpointWater temp
2014-Jul-27 07:26N 50°04' E 008°59'3 3.9
2014-Jul-27 06:33N 50°06' E 008°56'4 4.0
2014-Jul-27 05:33N 50°08' E 008°50'5 3.7
2014-Jul-27 04:20N 50°06' E 008°43'  
2014-Jul-21 09:33N 51°11' E 006°44'62 1.5
2014-Jul-19 17:32N 51°53' E 005°31'5 4.9
2014-Jul-19 16:33N 51°51' E 005°25'4 3.9
2014-Jul-19 15:33N 51°49' E 005°19'5 4.9
2014-Jul-19 14:33N 51°49' E 005°11'5 4.8
2014-Jul-19 13:30N 51°49' E 005°03'6 5.5
2014-Jul-19 12:27N 51°49' E 004°54'5 5.7
2014-Jul-19 11:33N 51°47' E 004°46'6 5.6
2014-Jul-19 10:33N 51°43' E 004°40'27 1.0
2014-Jul-18 08:03N 51°36' E 003°58'3 6.7
2014-Jul-18 07:33N 51°33' E 003°59'6 5.6
2014-Jul-18 06:33N 51°27' E 004°01'4 3.5
2014-Jul-18 05:33N 51°26' E 003°56'9 7.1
2014-Jul-18 04:18N 51°26' E 003°41'1 0.1
2014-Jul-17 21:21N 51°27' E 003°42'1 0.4
2014-Jul-17 19:33N 51°26' E 003°41'9 7.1
2014-Jul-17 18:19N 51°26' E 003°56'4 3.8
2014-Jul-17 17:22N 51°27' E 004°01'5 6.0
2014-Jul-17 16:34N 51°32' E 003°60'27 5.4
2014-Jul-17 11:33N 51°45' E 004°38'7 6.9
2014-Jul-17 10:33N 51°52' E 004°38'7 7.2
2014-Jul-17 09:33N 51°55' E 004°49'7 7.5
2014-Jul-17 08:33N 51°59' E 004°59'5 5.2
2014-Jul-17 07:33N 52°01' E 005°07'  

Dump ship's entire track history